Time;durP1;ratioP1;P1;durP2;ratioP2;P2;SDS_P1;SDS_P2;PMS_P1;PMS_P2;Temp;Humidity;BMP_temperature;BMP_pressure;BME280_temperature;BME280_humidity;BME280_pressure;Samples;Min_cycle;Max_cycle;Signal;HPM_P1;HPM_P2
2022/08/12 00:44:24;;;;;;;15.38;8.53;;;;;;;21.27;98.37;99995.10;1698375;84;21809;-86
2022/08/12 00:46:53;;;;;;;8.80;7.83;;;;;;;21.20;98.58;99996.91;1698588;83;21561;-78
2022/08/12 00:49:22;;;;;;;10.13;7.80;;;;;;;21.18;98.94;99988.77;1703200;82;21051;-88
2022/08/12 00:52:06;;;;;;;10.32;7.87;;;;;;;21.17;99.00;99984.42;1718817;82;21005;-81
2022/08/12 00:54:48;;;;;;;10.28;8.63;;;;;;;21.14;99.09;99995.44;1718558;82;21536;-77
2022/08/12 00:57:27;;;;;;;8.70;7.97;;;;;;;21.17;99.04;99997.54;1709520;82;21241;-84
2022/08/12 00:59:59;;;;;;;9.75;8.03;;;;;;;21.20;98.82;100000.20;1704696;84;20965;-82
2022/08/12 01:02:32;;;;;;;12.18;8.30;;;;;;;21.20;98.60;99998.83;1700554;83;21005;-82
2022/08/12 01:13:23;;;;;;;10.05;7.58;;;;;;;21.16;98.38;100004.69;1616879;87;21045;-81
2022/08/12 01:15:56;;;;;;;9.83;8.40;;;;;;;21.18;98.29;100003.83;1664173;83;21060;-81
2022/08/12 01:18:29;;;;;;;9.68;8.40;;;;;;;21.21;98.08;100004.55;1711400;83;21070;-80
2022/08/12 01:21:48;;;;;;;14.60;8.50;;;;;;;21.21;97.90;99994.98;1679063;85;21057;-79
2022/08/12 01:25:08;;;;;;;9.65;7.53;;;;;;;21.16;97.90;100002.75;1653167;85;21540;-74
2022/08/12 01:27:34;;;;;;;9.68;8.88;;;;;;;21.16;98.03;100004.13;1666781;84;21688;-75
2022/08/12 01:30:05;;;;;;;8.93;8.05;;;;;;;21.10;97.96;99997.12;1645429;86;21033;-75
2022/08/12 01:32:36;;;;;;;9.25;8.20;;;;;;;21.09;98.19;100000.20;1627389;86;21175;-73
2022/08/12 01:35:12;;;;;;;9.03;8.30;;;;;;;21.07;98.28;99996.39;1651204;86;21107;-75
2022/08/12 01:37:56;;;;;;;9.80;8.83;;;;;;;21.03;98.44;99998.14;1651454;86;21103;-75
2022/08/12 01:40:33;;;;;;;12.07;8.00;;;;;;;21.04;98.51;99997.58;1667489;85;21029;-78
2022/08/12 01:43:07;;;;;;;9.58;8.68;;;;;;;21.08;98.52;99995.28;1687919;83;21561;-79
2022/08/12 01:45:39;;;;;;;14.15;8.10;;;;;;;21.09;98.27;99990.06;1661498;84;21021;-77
2022/08/12 01:48:19;;;;;;;8.90;8.05;;;;;;;21.06;98.25;99993.41;1663089;85;21018;-79
2022/08/12 01:51:22;;;;;;;10.23;8.33;;;;;;;21.03;98.28;99998.70;1673408;85;21277;-77
2022/08/12 01:54:03;;;;;;;12.13;8.23;;;;;;;21.00;98.46;99996.59;1673246;85;21022;-80
2022/08/12 01:56:47;;;;;;;9.00;8.20;;;;;;;21.00;98.55;100008.34;1666221;84;21582;-80
2022/08/12 02:02:04;;;;;;;8.00;7.20;;;;;;;20.98;98.45;100016.05;1656591;86;21091;-80
2022/08/12 02:11:22;;;;;;;9.00;8.10;;;;;;;20.90;98.98;100020.89;1655867;84;21065;-79
2022/08/12 02:14:17;;;;;;;8.78;7.97;;;;;;;20.93;99.13;100012.62;1671814;84;21038;-77
2022/08/12 02:17:23;;;;;;;8.93;8.03;;;;;;;20.95;98.94;100012.57;1674641;85;21068;-78
2022/08/12 02:20:11;;;;;;;9.80;8.93;;;;;;;20.94;98.79;100008.77;1721057;82;21723;-78
2022/08/12 02:22:43;;;;;;;10.58;8.45;;;;;;;20.83;99.20;100015.84;1731290;82;20988;-77
2022/08/12 02:25:27;;;;;;;12.47;8.58;;;;;;;20.75;99.85;100021.25;1728624;82;20972;-77
2022/08/12 02:27:55;;;;;;;9.10;8.03;;;;;;;20.72;100.00;100024.02;1705184;83;21017;-77
2022/08/12 02:30:25;;;;;;;9.73;8.80;;;;;;;20.73;100.00;100030.30;1713111;82;20969;-77
2022/08/12 02:32:54;;;;;;;9.40;8.58;;;;;;;20.73;100.00;100035.22;1741410;81;20965;-77
2022/08/12 02:35:24;;;;;;;10.38;7.83;;;;;;;20.76;100.00;100035.17;1715432;81;20966;-76
2022/08/12 02:37:57;;;;;;;10.18;9.28;;;;;;;20.75;100.00;100027.53;1688967;84;21513;-76
2022/08/12 02:40:28;;;;;;;9.30;8.43;;;;;;;20.81;100.00;100020.80;1678718;84;20993;-77
2022/08/12 02:43:31;;;;;;;12.55;9.00;;;;;;;20.89;99.95;100023.37;1677230;85;21096;-76
2022/08/12 02:46:11;;;;;;;12.65;9.20;;;;;;;20.89;99.33;100018.72;1726149;82;21162;-76
2022/08/12 02:49:08;;;;;;;9.85;8.90;;;;;;;20.84;99.17;100018.03;1725942;82;20954;-77
2022/08/12 02:51:41;;;;;;;9.25;8.35;;;;;;;20.80;99.35;100014.30;1738969;81;21009;-77
2022/08/12 02:54:08;;;;;;;;;;;;;;;20.77;99.53;100010.80;1713916;83;21076;-77
2022/08/12 02:56:41;;;;;;;10.28;8.68;;;;;;;20.67;100.00;100014.58;1730653;82;20111;-76
2022/08/12 02:59:10;;;;;;;8.98;8.08;;;;;;;20.57;100.00;100008.00;1723538;83;21159;-77
2022/08/12 03:01:49;;;;;;;11.38;10.25;;;;;;;20.56;100.00;100006.94;1723847;83;22213;-75
2022/08/12 03:04:26;;;;;;;12.58;8.45;;;;;;;20.54;100.00;100011.33;1723766;83;21021;-75
2022/08/12 03:07:13;;;;;;;9.08;8.28;;;;;;;20.55;100.00;100023.08;1716979;82;21040;-76
2022/08/12 03:09:48;;;;;;;9.23;8.38;;;;;;;20.62;100.00;100017.45;1711572;82;20981;-75
2022/08/12 03:12:16;;;;;;;9.13;8.28;;;;;;;20.65;100.00;100020.11;1727963;82;21173;-77
2022/08/12 03:14:43;;;;;;;11.63;9.48;;;;;;;20.66;100.00;100014.91;1741089;81;21017;-78
2022/08/12 03:17:29;;;;;;;10.82;8.03;;;;;;;20.70;100.00;100007.14;1741255;81;21057;-77
2022/08/12 03:19:57;;;;;;;9.35;8.45;;;;;;;20.78;100.00;100011.86;1720404;82;21050;-77
2022/08/12 03:22:23;;;;;;;13.10;9.83;;;;;;;20.68;99.88;100003.89;1741579;81;21002;-78
2022/08/12 03:24:51;;;;;;;9.88;9.03;;;;;;;20.61;100.00;100002.17;1716042;82;22466;-78
2022/08/12 03:27:18;;;;;;;12.98;8.75;;;;;;;20.60;100.00;100000.55;1700170;83;21525;-78
2022/08/12 03:29:46;;;;;;;11.93;9.48;;;;;;;20.60;100.00;99997.00;1711028;82;21075;-78
2022/08/12 03:32:14;;;;;;;8.18;7.47;;;;;;;20.52;100.00;99996.38;1702031;84;21056;-78
2022/08/12 03:34:41;;;;;;;16.35;9.45;;;;;;;20.50;100.00;99996.67;1705277;84;21478;-76
2022/08/12 03:37:09;;;;;;;13.20;10.03;;;;;;;20.43;100.00;99995.72;1703096;83;21871;-78
2022/08/12 03:42:26;;;;;;;13.30;9.10;;;;;;;20.41;100.00;100014.91;1706844;82;21488;-78
2022/08/12 04:01:59;;;;;;;10.45;9.55;;;;;;;20.50;100.00;100010.89;1717225;82;20952;-78
2022/08/12 04:04:34;;;;;;;15.80;12.40;;;;;;;20.44;100.00;100017.02;1711053;83;20913;-77
2022/08/12 04:07:08;;;;;;;17.07;12.23;;;;;;;20.41;100.00;100007.53;1719883;82;21089;-77
2022/08/12 04:09:37;;;;;;;11.45;10.35;;;;;;;20.40;100.00;100019.56;1723499;83;20945;-77
2022/08/12 04:14:52;;;;;;;11.60;10.40;;;;;;;20.47;100.00;100011.52;1664623;84;21034;-76
2022/08/12 04:17:19;;;;;;;10.20;9.10;;;;;;;20.47;100.00;100012.33;1686738;85;21249;-77
2022/08/12 04:19:47;;;;;;;11.83;10.75;;;;;;;20.45;100.00;100007.16;1668627;84;21025;-77
2022/08/12 04:22:15;;;;;;;10.75;9.75;;;;;;;20.42;100.00;100020.08;1677650;84;21019;-77
2022/08/12 04:24:43;;;;;;;8.93;8.13;;;;;;;20.46;100.00;100013.44;1673199;84;21057;-76
2022/08/12 04:27:11;;;;;;;10.40;9.50;;;;;;;20.50;100.00;100002.14;1674160;83;21548;-77
2022/08/12 04:29:40;;;;;;;9.98;9.08;;;;;;;20.48;100.00;100001.62;1685262;84;21030;-76
2022/08/12 04:32:07;;;;;;;12.78;8.83;;;;;;;20.48;100.00;100001.62;1705250;84;21046;-77
2022/08/12 04:34:37;;;;;;;13.45;12.20;;;;;;;20.50;100.00;100005.42;1690966;83;21072;-75
2022/08/12 04:37:04;;;;;;;12.25;10.23;;;;;;;20.50;100.00;100006.79;1693171;83;21073;-74
2022/08/12 04:39:31;;;;;;;10.95;9.95;;;;;;;20.52;100.00;99999.92;1691669;84;21081;-75
2022/08/12 04:41:58;;;;;;;10.72;9.63;;;;;;;20.56;100.00;99995.45;1672960;84;21518;-75
2022/08/12 04:44:26;;;;;;;11.20;10.10;;;;;;;20.62;100.00;100006.52;1669019;85;21010;-74
2022/08/12 04:46:54;;;;;;;8.90;8.08;;;;;;;20.70;100.00;100007.14;1660008;85;21013;-74
2022/08/12 04:49:22;;;;;;;12.03;10.72;;;;;;;20.78;100.00;100016.52;1678429;84;21038;-75
2022/08/12 04:51:49;;;;;;;13.95;9.33;;;;;;;20.82;99.87;100022.98;1671773;84;21134;-75
2022/08/12 04:54:16;;;;;;;10.35;9.28;;;;;;;20.85;99.53;100022.38;1673936;85;22177;-76
2022/08/12 04:56:45;;;;;;;22.67;14.98;;;;;;;20.92;99.48;100014.54;1660308;85;20994;-77
2022/08/12 04:59:14;;;;;;;11.25;10.18;;;;;;;21.01;98.75;100014.59;1660954;86;21044;-77
2022/08/12 05:01:41;;;;;;;11.95;10.88;;;;;;;21.04;98.27;100007.97;1662626;86;21050;-77
2022/08/12 05:04:09;;;;;;;12.80;10.35;;;;;;;21.05;97.99;99995.10;1661167;86;21141;-76
2022/08/12 05:06:36;;;;;;;11.43;10.40;;;;;;;21.08;97.71;99989.81;1669549;85;21271;-77
2022/08/12 05:09:04;;;;;;;10.85;9.73;;;;;;;21.08;97.32;100000.75;1733943;82;21014;-77
2022/08/12 05:11:32;;;;;;;11.85;10.70;;;;;;;21.15;97.19;100002.50;1726440;81;21059;-75
2022/08/12 05:13:59;;;;;;;11.90;10.88;;;;;;;21.22;96.58;100000.70;1673346;85;21594;-76
2022/08/12 05:16:27;;;;;;;10.30;9.33;;;;;;;21.28;96.36;100006.30;1673321;85;21599;-77
2022/08/12 05:18:53;;;;;;;12.40;11.30;;;;;;;21.33;95.86;100003.44;1674196;84;21839;-77
2022/08/12 05:21:20;;;;;;;11.75;10.65;;;;;;;21.35;95.46;99999.00;1670714;85;20986;-77
2022/08/12 05:23:47;;;;;;;11.80;10.60;;;;;;;21.38;95.26;99998.39;1671433;85;22190;-76
2022/08/12 05:26:13;;;;;;;12.82;11.53;;;;;;;21.40;94.86;100006.52;1679099;84;21073;-75
2022/08/12 05:28:41;;;;;;;13.75;9.85;;;;;;;21.45;94.84;100011.05;1689969;84;21037;-76
2022/08/12 05:31:08;;;;;;;15.35;10.50;;;;;;;21.49;94.58;100002.45;1699639;83;21523;-75
2022/08/12 05:33:36;;;;;;;12.75;10.58;;;;;;;21.53;94.32;100004.27;1673188;85;20994;-75
2022/08/12 05:36:11;;;;;;;12.13;10.63;;;;;;;21.57;93.89;99989.39;1673115;85;21066;-74
2022/08/12 05:38:57;;;;;;;12.60;11.40;;;;;;;21.60;93.40;99989.56;1675169;85;21022;-74
2022/08/12 05:41:28;;;;;;;12.82;10.65;;;;;;;21.65;92.94;99992.72;1619489;85;21120;-77
2022/08/12 05:43:58;;;;;;;11.15;10.25;;;;;;;21.67;92.88;99994.59;1718809;82;21103;-77
2022/08/12 05:46:26;;;;;;;12.20;10.95;;;;;;;21.71;92.88;99999.67;1732357;82;21062;-76
2022/08/12 05:48:53;;;;;;;12.03;10.82;;;;;;;21.75;92.50;99998.72;1716454;83;21075;-79
2022/08/12 05:51:25;;;;;;;11.70;10.35;;;;;;;21.82;92.24;99994.73;1721801;82;21135;-77
2022/08/12 05:53:53;;;;;;;12.27;11.07;;;;;;;21.88;91.87;99992.07;1709732;82;20995;-77
2022/08/12 05:56:24;;;;;;;12.63;11.57;;;;;;;21.90;91.25;99992.02;1704196;82;21341;-75
2022/08/12 05:58:52;;;;;;;11.45;10.43;;;;;;;21.93;91.40;99991.92;1704579;84;21525;-77
2022/08/12 06:01:21;;;;;;;13.18;12.07;;;;;;;21.96;91.38;99989.97;1715914;82;20942;-76
2022/08/12 06:03:48;;;;;;;14.07;12.18;;;;;;;21.96;91.45;99994.89;1726085;82;21029;-81
2022/08/12 06:06:18;;;;;;;16.10;11.15;;;;;;;21.96;91.46;99999.56;1732975;82;21088;-78
2022/08/12 06:08:48;;;;;;;12.90;11.70;;;;;;;21.98;91.23;100000.84;1729015;82;21264;-76
2022/08/12 06:11:15;;;;;;;13.48;12.15;;;;;;;22.00;91.33;100010.13;1696905;83;21017;-75
2022/08/12 06:13:42;;;;;;;11.80;10.70;;;;;;;22.04;91.17;100028.34;1705077;84;21028;-79
2022/08/12 06:16:10;;;;;;;15.48;11.28;;;;;;;22.07;91.09;100008.52;1704948;84;21029;-78
2022/08/12 06:18:42;;;;;;;11.35;10.08;;;;;;;22.10;90.58;100012.02;1705076;84;21111;-77
2022/08/12 06:21:08;;;;;;;13.05;11.03;;;;;;;22.13;90.36;100016.03;1702458;82;21134;-77
2022/08/12 06:23:35;;;;;;;13.43;12.18;;;;;;;22.16;90.20;100005.80;1717546;82;21020;-75
2022/08/12 06:26:03;;;;;;;13.30;12.00;;;;;;;22.22;90.10;100020.97;1700814;84;21068;-76
2022/08/12 06:28:32;;;;;;;12.65;11.55;;;;;;;22.23;89.96;100013.00;1705129;84;21071;-75
2022/08/12 06:31:02;;;;;;;12.60;11.50;;;;;;;22.24;90.14;100010.51;1705162;84;21033;-75
2022/08/12 06:33:29;;;;;;;12.03;10.90;;;;;;;22.26;90.23;100006.87;1713101;82;21111;-75
2022/08/12 06:35:56;;;;;;;17.12;13.35;;;;;;;22.29;90.18;100014.47;1677263;84;21078;-77
2022/08/12 06:38:24;;;;;;;13.38;11.73;;;;;;;22.36;89.90;100008.50;1682303;83;21065;-76
2022/08/12 06:43:40;;;;;;;13.62;12.30;;;;;;;22.53;89.27;100005.80;1700502;84;21025;-77
2022/08/12 06:46:08;;;;;;;13.93;11.38;;;;;;;22.63;88.73;100015.08;1704915;84;21259;-78
2022/08/12 06:48:36;;;;;;;14.15;11.12;;;;;;;22.70;88.20;100017.32;1681946;84;21052;-76
2022/08/12 06:51:04;;;;;;;12.80;10.82;;;;;;;22.76;87.14;100010.58;1697120;83;21032;-79
2022/08/12 06:53:31;;;;;;;16.57;11.28;;;;;;;22.81;86.32;100011.23;1712088;82;21016;-75
2022/08/12 06:55:59;;;;;;;15.05;10.55;;;;;;;22.86;84.90;100004.22;1712377;82;21061;-74
2022/08/12 06:58:30;;;;;;;12.40;10.70;;;;;;;22.94;85.26;100002.59;1705244;84;21792;-74
2022/08/12 07:00:58;;;;;;;12.33;10.90;;;;;;;23.05;84.81;100006.62;1708249;83;21078;-76
2022/08/12 07:03:28;;;;;;;12.07;10.98;;;;;;;23.16;84.84;100014.77;1710298;83;21025;-77
2022/08/12 07:05:59;;;;;;;16.50;11.68;;;;;;;23.28;83.54;100005.84;1711971;82;21123;-75
2022/08/12 07:08:27;;;;;;;11.53;10.43;;;;;;;23.34;82.80;99999.86;1711043;83;21067;-75
2022/08/12 07:11:01;;;;;;;10.45;9.50;;;;;;;23.42;82.51;100000.39;1697876;82;21129;-75
2022/08/12 07:13:34;;;;;;;14.47;10.72;;;;;;;23.50;82.19;100007.61;1712256;82;21006;-78
2022/08/12 07:15:58;;;;;;;13.30;10.68;;;;;;;23.57;81.57;100001.84;1692216;83;21108;-78
2022/08/12 07:18:34;;;;;;;11.65;10.65;;;;;;;23.59;80.86;99995.45;1636574;86;21595;-76
2022/08/12 07:21:03;;;;;;;13.22;11.70;;;;;;;23.64;80.44;99999.97;1644474;86;21066;-75
2022/08/12 07:23:32;;;;;;;13.45;10.82;;;;;;;23.66;80.65;99991.63;1652171;86;21770;-73
2022/08/12 07:26:01;;;;;;;12.35;11.12;;;;;;;23.70;80.13;100000.00;1657841;84;21072;-75
2022/08/12 07:28:32;;;;;;;12.98;10.70;;;;;;;23.78;80.17;100004.67;1653074;85;21053;-74
2022/08/12 07:30:59;;;;;;;11.38;10.38;;;;;;;23.86;79.47;100007.94;1645322;85;21122;-78
2022/08/12 07:33:28;;;;;;;16.87;11.35;;;;;;;23.92;78.89;100014.88;1668739;85;21094;-74
2022/08/12 07:35:56;;;;;;;14.35;12.63;;;;;;;23.97;78.82;100007.81;1687864;84;21240;-75
2022/08/12 07:38:32;;;;;;;12.93;11.78;;;;;;;23.97;77.22;100016.63;1671461;84;21063;-74
2022/08/12 07:41:21;;;;;;;15.55;10.05;;;;;;;24.01;77.66;100011.51;1662464;84;21140;-74
2022/08/12 07:43:52;;;;;;;11.30;10.35;;;;;;;24.06;77.37;99996.77;1661086;86;21054;-75
2022/08/12 07:46:21;;;;;;;12.03;11.03;;;;;;;24.11;77.07;99997.39;1676174;84;21144;-74
2022/08/12 07:48:52;;;;;;;20.55;11.48;;;;;;;24.13;76.72;99993.72;1693309;83;21098;-74
2022/08/12 07:51:19;;;;;;;19.62;10.68;;;;;;;24.17;76.86;100001.56;1678867;83;21515;-74
2022/08/12 07:53:47;;;;;;;12.18;11.00;;;;;;;24.19;76.57;99994.37;1688847;84;21483;-75
2022/08/12 07:56:15;;;;;;;21.33;11.38;;;;;;;24.19;76.58;99992.43;1674478;85;21050;-75
2022/08/12 07:58:42;;;;;;;11.38;10.28;;;;;;;24.20;76.51;99989.92;1673338;84;21061;-76
2022/08/12 08:01:16;;;;;;;13.50;11.80;;;;;;;24.22;76.39;99996.47;1685651;84;21955;-74
2022/08/12 08:06:30;;;;;;;12.90;11.78;;;;;;;24.26;75.93;99992.72;1680496;84;21012;-78
2022/08/12 08:09:02;;;;;;;11.53;10.35;;;;;;;24.31;76.37;99992.53;1648516;85;21081;-76
2022/08/12 08:14:14;;;;;;;13.03;11.22;;;;;;;24.40;76.46;99981.47;1662552;85;21201;-76
2022/08/12 08:16:42;;;;;;;14.55;13.08;;;;;;;24.48;76.32;99989.41;1664663;84;21550;-77
2022/08/12 08:19:18;;;;;;;12.85;11.55;;;;;;;24.50;76.62;99991.27;1675542;85;21045;-75
2022/08/12 08:21:38;;;;;;;15.60;11.10;;;;;;;24.52;76.25;99988.39;1642350;84;21040;-72
2022/08/12 08:24:14;;;;;;;21.70;12.05;;;;;;;24.49;76.43;99992.39;1655326;86;21598;-72
2022/08/12 08:26:43;;;;;;;12.53;10.75;;;;;;;24.51;76.67;99985.41;1665708;84;21186;-75
2022/08/12 08:29:11;;;;;;;12.45;11.33;;;;;;;24.56;76.96;99978.90;1681249;83;21109;-77
2022/08/12 08:31:42;;;;;;;15.68;14.13;;;;;;;24.59;76.90;99984.55;1665659;85;20993;-75
2022/08/12 08:34:09;;;;;;;12.63;11.43;;;;;;;24.66;75.93;99981.24;1664736;85;21095;-79
2022/08/12 08:36:38;;;;;;;11.30;10.32;;;;;;;24.72;74.70;99978.53;1650579;84;21066;-74
2022/08/12 08:39:07;;;;;;;14.25;12.33;;;;;;;24.79;75.14;99971.13;1709654;81;22302;-72
2022/08/12 08:44:21;;;;;;;15.90;12.55;;;;;;;25.02;74.32;99962.75;1704321;83;21556;-75
2022/08/12 08:46:48;;;;;;;11.93;10.93;;;;;;;25.15;73.96;99973.45;1684626;84;21168;-76
2022/08/12 08:49:16;;;;;;;14.63;12.07;;;;;;;25.27;73.55;99973.27;1650567;84;21173;-76
2022/08/12 08:51:46;;;;;;;12.18;11.00;;;;;;;25.35;72.65;99972.35;1661622;84;21884;-75
2022/08/12 08:54:13;;;;;;;12.28;11.15;;;;;;;25.42;72.03;99971.23;1676788;85;21087;-77
2022/08/12 08:56:41;;;;;;;21.17;12.55;;;;;;;25.49;71.59;99975.02;1648762;84;21045;-77
2022/08/12 08:59:11;;;;;;;12.58;11.35;;;;;;;25.55;72.08;99977.82;1671232;83;21033;-76
2022/08/12 09:01:40;;;;;;;12.53;11.43;;;;;;;25.63;71.72;99976.66;1673615;83;21629;-77
2022/08/12 09:04:09;;;;;;;13.08;11.78;;;;;;;25.67;71.15;99972.88;1653993;84;21170;-77
2022/08/12 09:06:38;;;;;;;17.07;11.80;;;;;;;25.67;71.40;99963.80;1689217;83;21036;-77
2022/08/12 09:09:05;;;;;;;14.58;13.13;;;;;;;25.72;71.20;99967.14;1672881;83;21547;-77
2022/08/12 09:14:17;;;;;;;13.35;12.15;;;;;;;25.83;70.46;99989.54;1691915;84;21064;-77
2022/08/12 09:16:44;;;;;;;13.48;12.23;;;;;;;25.93;69.60;100000.92;1679197;84;22064;-81
2022/08/12 09:19:14;;;;;;;15.32;12.18;;;;;;;25.98;69.24;99997.12;1672510;84;21003;-75
2022/08/12 09:21:41;;;;;;;12.60;11.28;;;;;;;26.02;69.00;100004.94;1647817;85;21116;-79
2022/08/12 09:24:07;;;;;;;12.80;11.43;;;;;;;26.03;68.75;100012.06;1627712;85;21075;-75
2022/08/12 09:26:37;;;;;;;13.30;11.93;;;;;;;26.05;68.88;100015.26;1687597;84;21053;-76
2022/08/12 09:29:05;;;;;;;15.85;14.45;;;;;;;26.07;68.82;100020.44;1662536;84;21169;-76
2022/08/12 09:31:34;;;;;;;19.00;14.33;;;;;;;26.13;69.06;100031.47;1662282;85;20957;-76
2022/08/12 09:34:01;;;;;;;20.60;12.73;;;;;;;26.18;69.08;100031.24;1669542;84;21536;-73
2022/08/12 09:36:30;;;;;;;15.03;13.15;;;;;;;26.23;69.10;100039.31;1647516;85;21047;-78
2022/08/12 09:38:56;;;;;;;13.68;12.35;;;;;;;26.23;68.89;100019.44;1661356;85;21046;-78
2022/08/12 09:41:23;;;;;;;14.25;12.85;;;;;;;26.20;69.22;100024.78;1657961;84;21913;-76
2022/08/12 09:46:41;;;;;;;13.72;11.83;;;;;;;26.07;69.92;100046.63;1660287;84;21036;-75
2022/08/12 09:49:08;;;;;;;13.05;11.85;;;;;;;25.98;70.27;100047.55;1653091;86;21076;-77
2022/08/12 09:51:35;;;;;;;14.45;12.23;;;;;;;25.90;70.67;100044.31;1662605;84;21083;-80
2022/08/12 09:54:02;;;;;;;12.80;11.50;;;;;;;25.91;70.96;100034.90;1666076;85;21264;-81
2022/08/12 09:56:33;;;;;;;17.15;11.35;;;;;;;25.96;70.47;100037.43;1672791;84;21019;-80
2022/08/12 09:59:00;;;;;;;12.63;11.40;;;;;;;25.98;70.54;100034.34;1738071;82;21651;-78
2022/08/12 10:01:27;;;;;;;13.48;12.18;;;;;;;26.00;70.75;100043.86;1732361;82;21021;-78
2022/08/12 10:03:53;;;;;;;15.00;11.33;;;;;;;26.02;70.86;100038.82;1712310;82;20941;-80
2022/08/12 10:06:20;;;;;;;12.70;11.50;;;;;;;26.02;70.96;100033.30;1717012;82;21098;-77
2022/08/12 10:08:48;;;;;;;15.45;11.53;;;;;;;26.03;71.25;100033.55;1716875;83;21525;-78
2022/08/12 10:14:00;;;;;;;12.35;11.20;;;;;;;26.01;71.67;100039.96;1673175;85;21073;-78
2022/08/12 10:16:30;;;;;;;12.90;11.53;;;;;;;26.00;71.26;100042.48;1672933;84;21574;-77
2022/08/12 10:19:02;;;;;;;12.13;11.00;;;;;;;26.01;71.43;100053.75;1673701;84;21130;-79
2022/08/12 10:21:37;;;;;;;21.75;13.38;;;;;;;26.03;71.71;100052.84;1704134;84;21568;-82
2022/08/12 10:24:12;;;;;;;13.80;12.50;;;;;;;26.05;71.61;100045.02;1703908;84;21076;-78
2022/08/12 10:29:43;;;;;;;14.33;12.88;;;;;;;26.09;71.64;100052.02;1705243;84;21534;-79
2022/08/12 10:32:22;;;;;;;19.35;13.53;;;;;;;26.09;71.79;100058.91;1704651;82;21208;-78
2022/08/12 10:34:52;;;;;;;16.93;11.93;;;;;;;26.14;71.78;100064.80;1699398;82;37524;-75
2022/08/12 10:37:19;;;;;;;17.70;13.10;;;;;;;26.18;71.87;100061.58;1705719;83;22615;-81
2022/08/12 10:39:46;;;;;;;13.15;11.90;;;;;;;26.23;72.08;100053.91;1705078;82;21111;-87
2022/08/12 10:45:02;;;;;;;12.45;11.25;;;;;;;26.21;72.01;100054.81;1700525;83;21268;-81
2022/08/12 10:47:31;;;;;;;13.20;11.93;;;;;;;26.22;71.90;100052.87;1723733;83;21047;-81
2022/08/12 10:49:58;;;;;;;12.25;11.22;;;;;;;26.26;71.77;100051.02;1703331;82;21427;-80
2022/08/12 10:52:29;;;;;;;12.20;11.08;;;;;;;26.29;71.44;100062.16;1706964;83;22322;-73
2022/08/12 10:54:57;;;;;;;14.33;12.60;;;;;;;26.28;71.24;100057.02;1703244;84;20958;-72
2022/08/12 10:57:25;;;;;;;13.45;12.23;;;;;;;26.31;71.52;100050.22;1702940;84;21265;-79
2022/08/12 10:59:56;;;;;;;16.25;12.78;;;;;;;26.37;71.04;100040.56;1701215;83;21033;-77
2022/08/12 11:02:21;;;;;;;14.30;12.68;;;;;;;26.41;70.84;100043.43;1707529;83;21037;-78
2022/08/12 11:04:48;;;;;;;13.40;12.20;;;;;;;26.44;70.96;100049.63;1724104;82;21056;-79
2022/08/12 11:07:14;;;;;;;13.53;12.10;;;;;;;26.46;70.75;100054.23;1678394;82;21517;-79
2022/08/12 11:09:44;;;;;;;23.92;12.07;;;;;;;26.44;70.14;100053.19;1717867;82;21103;-79
2022/08/12 11:12:10;;;;;;;14.07;12.68;;;;;;;26.40;68.96;100051.47;1710401;82;21081;-83
2022/08/12 11:14:37;;;;;;;14.63;13.22;;;;;;;26.32;69.26;100051.02;1710938;82;21048;-80
2022/08/12 11:17:06;;;;;;;14.78;13.25;;;;;;;26.26;69.34;100041.37;1741851;82;21082;-78
2022/08/12 11:19:36;;;;;;;16.65;14.78;;;;;;;26.23;69.64;100026.91;1704282;81;21114;-78
2022/08/12 11:22:03;;;;;;;17.12;12.55;;;;;;;26.21;69.79;100022.27;1726050;81;21608;-79
2022/08/12 11:24:30;;;;;;;14.40;12.98;;;;;;;26.21;69.45;100021.72;1670929;85;21051;-80
2022/08/12 11:27:01;;;;;;;14.00;12.53;;;;;;;26.16;69.54;100018.36;1706433;82;20984;-72
2022/08/12 11:29:28;;;;;;;16.57;11.93;;;;;;;26.15;69.70;100015.37;1681875;83;21073;-73
2022/08/12 11:31:55;;;;;;;14.93;13.22;;;;;;;26.15;69.91;100018.94;1699120;82;21107;-73
2022/08/12 11:34:22;;;;;;;13.45;12.13;;;;;;;26.10;70.28;100030.19;1662792;83;21111;-75
2022/08/12 11:37:03;;;;;;;18.25;11.88;;;;;;;26.09;70.65;100029.17;1705454;83;20996;-75
2022/08/12 11:39:30;;;;;;;13.03;10.58;;;;;;;26.08;70.87;100028.38;1689617;82;20999;-75
2022/08/12 11:41:57;;;;;;;13.85;12.43;;;;;;;26.12;71.09;100025.72;1691576;83;21064;-79
2022/08/12 11:44:25;;;;;;;14.73;13.30;;;;;;;26.17;71.07;100025.48;1672328;83;21133;-74
2022/08/12 11:46:56;;;;;;;17.37;15.50;;;;;;;26.18;70.68;100025.73;1672047;84;21171;-75
2022/08/12 11:49:25;;;;;;;15.13;13.45;;;;;;;26.18;70.91;100025.73;1672181;83;21539;-74
2022/08/12 11:51:51;;;;;;;20.37;12.47;;;;;;;26.17;71.19;100019.41;1675811;85;21069;-79
2022/08/12 11:54:18;;;;;;;16.57;12.03;;;;;;;26.16;71.71;100015.60;1672999;83;21023;-80
2022/08/12 11:56:45;;;;;;;15.35;13.10;;;;;;;26.15;71.97;100019.50;1659925;84;21042;-73
2022/08/12 11:59:11;;;;;;;13.70;12.30;;;;;;;26.12;72.16;100023.77;1675799;84;21147;-79
2022/08/12 12:01:38;;;;;;;14.18;12.78;;;;;;;26.11;72.33;100027.67;1672830;85;21535;-76
2022/08/12 12:04:05;;;;;;;13.30;11.88;;;;;;;26.10;72.36;100028.81;1672340;84;21023;-80
2022/08/12 12:06:34;;;;;;;15.78;12.70;;;;;;;26.08;72.40;100041.34;1670980;84;21009;-79
2022/08/12 12:09:00;;;;;;;13.28;11.88;;;;;;;26.04;72.58;100039.27;1672817;83;20982;-78
2022/08/12 12:11:27;;;;;;;13.03;11.68;;;;;;;26.00;72.70;100040.30;1695075;83;21300;-75
2022/08/12 12:13:54;;;;;;;18.75;12.80;;;;;;;26.02;72.79;100046.28;1684084;83;21507;-76
2022/08/12 12:16:21;;;;;;;21.07;15.13;;;;;;;26.06;72.86;100045.82;1678813;85;21075;-76
2022/08/12 12:18:48;;;;;;;15.65;13.10;;;;;;;26.12;72.83;100051.34;1672936;85;21017;-74
2022/08/12 12:21:15;;;;;;;20.00;13.50;;;;;;;26.18;72.47;100055.48;1670995;85;21013;-75
2022/08/12 12:23:42;;;;;;;14.30;12.53;;;;;;;26.24;72.19;100049.98;1670948;85;21171;-74
2022/08/12 12:26:09;;;;;;;15.55;11.73;;;;;;;26.33;71.99;100052.04;1649838;85;21092;-75
2022/08/12 12:28:37;;;;;;;14.87;11.68;;;;;;;26.34;71.78;100052.27;1672182;84;21143;-75
2022/08/12 12:31:05;;;;;;;17.37;13.75;;;;;;;26.36;71.97;100054.70;1710220;83;21507;-73
2022/08/12 12:33:32;;;;;;;20.92;14.25;;;;;;;26.42;71.89;100047.80;1652068;85;21200;-74
2022/08/12 12:35:59;;;;;;;17.35;15.78;;;;;;;26.44;71.97;100053.76;1672558;85;21203;-77
2022/08/12 12:38:26;;;;;;;13.93;12.58;;;;;;;26.48;71.57;100038.92;1670866;84;21511;-77
2022/08/12 12:40:53;;;;;;;13.80;12.40;;;;;;;26.53;71.33;100018.56;1670945;85;21092;-75
2022/08/12 12:43:19;;;;;;;13.93;12.40;;;;;;;26.58;71.06;100032.12;1676493;83;20982;-78
2022/08/12 12:45:47;;;;;;;15.15;13.65;;;;;;;26.60;70.37;100032.59;1676296;83;21516;-76
2022/08/12 12:48:18;;;;;;;15.03;12.98;;;;;;;26.61;70.37;100025.12;1671849;84;21127;-77
2022/08/12 12:53:37;;;;;;;11.73;10.72;;;;;;;26.78;69.95;100037.25;1680750;83;21515;-80
2022/08/12 12:56:04;;;;;;;12.45;11.03;;;;;;;26.82;68.82;100034.81;1689957;83;21050;-85
2022/08/12 12:58:32;;;;;;;13.48;10.95;;;;;;;26.81;68.84;100026.30;1679136;83;21093;-82
2022/08/12 13:01:00;;;;;;;13.60;12.05;;;;;;;26.86;68.47;100032.99;1672494;83;21815;-86
2022/08/12 13:03:34;;;;;;;12.53;11.05;;;;;;;26.90;67.66;100026.22;1701666;82;20981;-81
2022/08/12 13:05:59;;;;;;;20.02;15.45;;;;;;;26.94;67.64;100023.55;1710606;82;20950;-78
2022/08/12 13:08:29;;;;;;;14.58;12.78;;;;;;;26.99;67.72;100024.68;1707724;81;21079;-75
2022/08/12 13:11:06;;;;;;;13.78;12.35;;;;;;;27.02;67.61;100008.20;1730465;82;21009;-75
2022/08/12 13:13:33;;;;;;;16.15;11.55;;;;;;;27.09;67.27;100010.37;1729124;82;21187;-77
2022/08/12 13:16:03;;;;;;;11.25;10.35;;;;;;;27.20;67.02;100011.45;1711160;82;21008;-76
2022/08/12 13:18:35;;;;;;;14.18;12.80;;;;;;;27.36;66.95;100017.02;1715464;83;21059;-74
2022/08/12 13:21:05;;;;;;;13.68;12.37;;;;;;;27.57;66.60;100011.52;1712553;82;21125;-75